sensor_id;sensor_type;location;lat;lon;timestamp;temperature;humidity
46926;DHT22;32667;48.248;-1.700;2022-10-01T00:02:03;17.20;65.70
46926;DHT22;32667;48.248;-1.700;2022-10-01T00:04:29;17.20;65.70
46926;DHT22;32667;48.248;-1.700;2022-10-01T00:07:00;17.20;65.70
46926;DHT22;32667;48.248;-1.700;2022-10-01T00:09:30;17.20;65.70
46926;DHT22;32667;48.248;-1.700;2022-10-01T00:11:56;17.20;65.70
46926;DHT22;32667;48.248;-1.700;2022-10-01T00:14:24;17.20;65.70
46926;DHT22;32667;48.248;-1.700;2022-10-01T00:16:50;17.30;65.80
46926;DHT22;32667;48.248;-1.700;2022-10-01T00:19:16;17.30;65.80
46926;DHT22;32667;48.248;-1.700;2022-10-01T00:21:42;17.20;65.70
46926;DHT22;32667;48.248;-1.700;2022-10-01T00:24:11;17.30;65.80
46926;DHT22;32667;48.248;-1.700;2022-10-01T00:26:37;17.30;65.80
46926;DHT22;32667;48.248;-1.700;2022-10-01T00:29:06;17.30;65.80
46926;DHT22;32667;48.248;-1.700;2022-10-01T00:31:32;17.30;65.80
46926;DHT22;32667;48.248;-1.700;2022-10-01T00:34:00;17.30;65.80
46926;DHT22;32667;48.248;-1.700;2022-10-01T00:36:30;17.30;65.80
46926;DHT22;32667;48.248;-1.700;2022-10-01T00:38:57;17.30;65.80
46926;DHT22;32667;48.248;-1.700;2022-10-01T00:41:26;17.40;65.80
46926;DHT22;32667;48.248;-1.700;2022-10-01T00:43:57;17.40;65.80
46926;DHT22;32667;48.248;-1.700;2022-10-01T00:46:40;17.50;65.80
46926;DHT22;32667;48.248;-1.700;2022-10-01T00:49:15;17.50;65.80
46926;DHT22;32667;48.248;-1.700;2022-10-01T00:51:47;17.50;65.70
46926;DHT22;32667;48.248;-1.700;2022-10-01T00:54:33;17.50;65.70
46926;DHT22;32667;48.248;-1.700;2022-10-01T00:57:01;17.50;65.70
46926;DHT22;32667;48.248;-1.700;2022-10-01T00:59:29;17.60;65.70
46926;DHT22;32667;48.248;-1.700;2022-10-01T01:01:55;17.60;65.70
46926;DHT22;32667;48.248;-1.700;2022-10-01T01:04:21;17.60;65.60
46926;DHT22;32667;48.248;-1.700;2022-10-01T01:06:52;17.60;65.60
46926;DHT22;32667;48.248;-1.700;2022-10-01T01:09:33;17.60;65.60
46926;DHT22;32667;48.248;-1.700;2022-10-01T01:25:59;17.70;65.70
46926;DHT22;32667;48.248;-1.700;2022-10-01T01:28:31;17.70;65.70
46926;DHT22;32667;48.248;-1.700;2022-10-01T01:31:03;17.70;65.80
46926;DHT22;32667;48.248;-1.700;2022-10-01T01:33:31;17.70;65.80
46926;DHT22;32667;48.248;-1.700;2022-10-01T01:36:12;17.70;65.80
46926;DHT22;32667;48.248;-1.700;2022-10-01T01:38:51;17.70;65.90
46926;DHT22;32667;48.248;-1.700;2022-10-01T01:41:23;17.70;65.90
46926;DHT22;32667;48.248;-1.700;2022-10-01T01:43:55;17.70;65.80
46926;DHT22;32667;48.248;-1.700;2022-10-01T01:46:22;17.70;65.80
46926;DHT22;32667;48.248;-1.700;2022-10-01T01:48:49;17.80;65.90
46926;DHT22;32667;48.248;-1.700;2022-10-01T01:53:54;17.80;65.90
46926;DHT22;32667;48.248;-1.700;2022-10-01T01:56:20;17.80;65.80
46926;DHT22;32667;48.248;-1.700;2022-10-01T01:58:46;17.80;65.90
46926;DHT22;32667;48.248;-1.700;2022-10-01T02:01:42;17.80;65.90
46926;DHT22;32667;48.248;-1.700;2022-10-01T02:09:35;17.80;65.90
46926;DHT22;32667;48.248;-1.700;2022-10-01T02:12:10;17.80;65.90
46926;DHT22;32667;48.248;-1.700;2022-10-01T02:14:49;17.90;66.00
46926;DHT22;32667;48.248;-1.700;2022-10-01T02:17:30;17.90;66.00
46926;DHT22;32667;48.248;-1.700;2022-10-01T02:20:02;17.90;66.00
46926;DHT22;32667;48.248;-1.700;2022-10-01T02:22:51;17.90;66.00
46926;DHT22;32667;48.248;-1.700;2022-10-01T02:25:23;17.90;66.00
46926;DHT22;32667;48.248;-1.700;2022-10-01T02:28:00;17.90;66.00
46926;DHT22;32667;48.248;-1.700;2022-10-01T02:30:32;17.90;66.00
46926;DHT22;32667;48.248;-1.700;2022-10-01T02:33:00;17.90;66.00
46926;DHT22;32667;48.248;-1.700;2022-10-01T02:35:30;17.90;65.90
46926;DHT22;32667;48.248;-1.700;2022-10-01T02:37:59;18.00;66.00
46926;DHT22;32667;48.248;-1.700;2022-10-01T02:40:27;18.00;66.00
46926;DHT22;32667;48.248;-1.700;2022-10-01T02:42:58;18.00;66.00
46926;DHT22;32667;48.248;-1.700;2022-10-01T02:45:25;18.00;66.00
46926;DHT22;32667;48.248;-1.700;2022-10-01T02:48:05;18.00;66.00
46926;DHT22;32667;48.248;-1.700;2022-10-01T02:53:18;18.00;66.70
46926;DHT22;32667;48.248;-1.700;2022-10-01T02:55:46;17.90;66.10
46926;DHT22;32667;48.248;-1.700;2022-10-01T02:58:12;17.90;66.10
46926;DHT22;32667;48.248;-1.700;2022-10-01T03:00:38;17.90;66.10
46926;DHT22;32667;48.248;-1.700;2022-10-01T03:03:04;18.00;66.20
46926;DHT22;32667;48.248;-1.700;2022-10-01T03:05:30;18.00;66.20
46926;DHT22;32667;48.248;-1.700;2022-10-01T03:07:55;18.00;66.20
46926;DHT22;32667;48.248;-1.700;2022-10-01T03:10:21;18.00;66.20
46926;DHT22;32667;48.248;-1.700;2022-10-01T03:12:47;18.00;66.20
46926;DHT22;32667;48.248;-1.700;2022-10-01T03:15:15;18.00;66.10
46926;DHT22;32667;48.248;-1.700;2022-10-01T03:17:42;18.10;66.10
46926;DHT22;32667;48.248;-1.700;2022-10-01T03:20:08;18.10;66.10
46926;DHT22;32667;48.248;-1.700;2022-10-01T03:22:39;18.10;66.10
46926;DHT22;32667;48.248;-1.700;2022-10-01T03:25:07;18.10;66.10
46926;DHT22;32667;48.248;-1.700;2022-10-01T03:27:35;18.10;66.20
46926;DHT22;32667;48.248;-1.700;2022-10-01T03:30:01;18.00;66.20
46926;DHT22;32667;48.248;-1.700;2022-10-01T03:32:30;18.00;66.20
46926;DHT22;32667;48.248;-1.700;2022-10-01T03:34:59;18.00;66.20
46926;DHT22;32667;48.248;-1.700;2022-10-01T03:37:24;18.00;66.30
46926;DHT22;32667;48.248;-1.700;2022-10-01T03:39:50;18.00;66.30
46926;DHT22;32667;48.248;-1.700;2022-10-01T03:42:16;18.00;66.30
46926;DHT22;32667;48.248;-1.700;2022-10-01T03:44:42;18.00;66.30
46926;DHT22;32667;48.248;-1.700;2022-10-01T03:47:09;18.00;66.30
46926;DHT22;32667;48.248;-1.700;2022-10-01T03:49:35;18.00;66.30
46926;DHT22;32667;48.248;-1.700;2022-10-01T03:52:03;18.00;66.40
46926;DHT22;32667;48.248;-1.700;2022-10-01T03:54:29;18.00;66.30
46926;DHT22;32667;48.248;-1.700;2022-10-01T03:56:55;18.00;66.30
46926;DHT22;32667;48.248;-1.700;2022-10-01T03:59:21;18.10;66.40
46926;DHT22;32667;48.248;-1.700;2022-10-01T04:01:49;18.00;66.30
46926;DHT22;32667;48.248;-1.700;2022-10-01T04:04:15;18.00;66.40
46926;DHT22;32667;48.248;-1.700;2022-10-01T04:06:43;18.00;66.40
46926;DHT22;32667;48.248;-1.700;2022-10-01T04:09:09;18.00;66.50
46926;DHT22;32667;48.248;-1.700;2022-10-01T04:11:37;18.00;66.50
46926;DHT22;32667;48.248;-1.700;2022-10-01T04:14:04;18.00;66.60
46926;DHT22;32667;48.248;-1.700;2022-10-01T04:16:30;18.00;66.60
46926;DHT22;32667;48.248;-1.700;2022-10-01T04:18:59;18.00;66.60
46926;DHT22;32667;48.248;-1.700;2022-10-01T04:21:25;18.00;66.60
46926;DHT22;32667;48.248;-1.700;2022-10-01T04:23:50;18.00;66.70
46926;DHT22;32667;48.248;-1.700;2022-10-01T04:26:17;17.90;66.60
46926;DHT22;32667;48.248;-1.700;2022-10-01T04:28:46;17.90;66.60
46926;DHT22;32667;48.248;-1.700;2022-10-01T04:31:13;17.90;66.60
46926;DHT22;32667;48.248;-1.700;2022-10-01T04:33:55;17.90;66.80
46926;DHT22;32667;48.248;-1.700;2022-10-01T04:36:23;17.80;66.80
46926;DHT22;32667;48.248;-1.700;2022-10-01T04:38:53;17.80;66.80
46926;DHT22;32667;48.248;-1.700;2022-10-01T04:41:19;17.80;66.80
46926;DHT22;32667;48.248;-1.700;2022-10-01T04:43:45;17.80;66.80
46926;DHT22;32667;48.248;-1.700;2022-10-01T04:46:10;17.80;66.80
46926;DHT22;32667;48.248;-1.700;2022-10-01T04:48:36;17.80;66.80
46926;DHT22;32667;48.248;-1.700;2022-10-01T04:51:02;17.80;66.80
46926;DHT22;32667;48.248;-1.700;2022-10-01T04:53:28;17.80;66.80
46926;DHT22;32667;48.248;-1.700;2022-10-01T04:55:56;17.80;66.80
46926;DHT22;32667;48.248;-1.700;2022-10-01T04:58:22;17.80;66.80
46926;DHT22;32667;48.248;-1.700;2022-10-01T05:00:48;17.80;66.80
46926;DHT22;32667;48.248;-1.700;2022-10-01T05:03:15;17.80;66.80
46926;DHT22;32667;48.248;-1.700;2022-10-01T05:05:43;17.80;66.90
46926;DHT22;32667;48.248;-1.700;2022-10-01T05:08:11;17.90;66.90
46926;DHT22;32667;48.248;-1.700;2022-10-01T05:10:36;17.80;66.80
46926;DHT22;32667;48.248;-1.700;2022-10-01T05:13:02;17.90;66.90
46926;DHT22;32667;48.248;-1.700;2022-10-01T05:15:28;17.90;66.90
46926;DHT22;32667;48.248;-1.700;2022-10-01T05:17:55;17.90;66.80
46926;DHT22;32667;48.248;-1.700;2022-10-01T05:20:23;17.90;66.80
46926;DHT22;32667;48.248;-1.700;2022-10-01T05:22:50;17.90;66.90
46926;DHT22;32667;48.248;-1.700;2022-10-01T05:25:17;17.80;66.90
46926;DHT22;32667;48.248;-1.700;2022-10-01T05:27:44;17.80;66.90
46926;DHT22;32667;48.248;-1.700;2022-10-01T05:30:13;17.80;67.00
46926;DHT22;32667;48.248;-1.700;2022-10-01T05:32:55;17.80;67.00
46926;DHT22;32667;48.248;-1.700;2022-10-01T05:35:22;17.80;67.00
46926;DHT22;32667;48.248;-1.700;2022-10-01T05:37:57;17.80;67.00
46926;DHT22;32667;48.248;-1.700;2022-10-01T05:40:24;17.70;67.00
46926;DHT22;32667;48.248;-1.700;2022-10-01T05:42:59;17.80;67.10
46926;DHT22;32667;48.248;-1.700;2022-10-01T05:45:29;17.70;67.00
46926;DHT22;32667;48.248;-1.700;2022-10-01T05:48:01;17.70;67.00
46926;DHT22;32667;48.248;-1.700;2022-10-01T05:50:29;17.70;67.00
46926;DHT22;32667;48.248;-1.700;2022-10-01T05:52:56;17.70;67.00
46926;DHT22;32667;48.248;-1.700;2022-10-01T05:55:24;17.70;67.00
46926;DHT22;32667;48.248;-1.700;2022-10-01T05:57:58;17.70;67.00
46926;DHT22;32667;48.248;-1.700;2022-10-01T06:00:24;17.70;67.00
46926;DHT22;32667;48.248;-1.700;2022-10-01T06:02:57;17.70;67.00
46926;DHT22;32667;48.248;-1.700;2022-10-01T06:05:27;17.70;67.10
46926;DHT22;32667;48.248;-1.700;2022-10-01T06:08:04;17.70;67.10
46926;DHT22;32667;48.248;-1.700;2022-10-01T06:10:30;17.70;67.10
46926;DHT22;32667;48.248;-1.700;2022-10-01T06:12:59;17.70;67.10
46926;DHT22;32667;48.248;-1.700;2022-10-01T06:15:34;17.70;67.10
46926;DHT22;32667;48.248;-1.700;2022-10-01T06:18:09;17.70;67.10
46926;DHT22;32667;48.248;-1.700;2022-10-01T06:20:36;17.70;67.10
46926;DHT22;32667;48.248;-1.700;2022-10-01T06:23:07;17.70;67.10
46926;DHT22;32667;48.248;-1.700;2022-10-01T06:25:37;17.70;67.10
46926;DHT22;32667;48.248;-1.700;2022-10-01T06:28:04;17.70;67.10
46926;DHT22;32667;48.248;-1.700;2022-10-01T06:30:32;17.70;67.10
46926;DHT22;32667;48.248;-1.700;2022-10-01T06:35:27;17.70;67.10
46926;DHT22;32667;48.248;-1.700;2022-10-01T06:37:53;17.70;67.00
46926;DHT22;32667;48.248;-1.700;2022-10-01T06:40:19;17.70;67.00
46926;DHT22;32667;48.248;-1.700;2022-10-01T06:42:49;17.70;67.00
46926;DHT22;32667;48.248;-1.700;2022-10-01T06:45:15;17.70;67.00
46926;DHT22;32667;48.248;-1.700;2022-10-01T06:47:51;17.80;67.00
46926;DHT22;32667;48.248;-1.700;2022-10-01T06:50:17;17.80;66.90
46926;DHT22;32667;48.248;-1.700;2022-10-01T06:52:43;17.90;66.90
46926;DHT22;32667;48.248;-1.700;2022-10-01T06:55:27;17.90;66.90
46926;DHT22;32667;48.248;-1.700;2022-10-01T06:57:58;17.90;66.80
46926;DHT22;32667;48.248;-1.700;2022-10-01T07:00:25;18.00;66.80
46926;DHT22;32667;48.248;-1.700;2022-10-01T07:02:51;17.90;66.80
46926;DHT22;32667;48.248;-1.700;2022-10-01T07:05:17;17.90;66.80
46926;DHT22;32667;48.248;-1.700;2022-10-01T07:07:43;17.90;66.80
46926;DHT22;32667;48.248;-1.700;2022-10-01T07:10:14;17.90;66.80
46926;DHT22;32667;48.248;-1.700;2022-10-01T07:12:39;17.90;66.90
46926;DHT22;32667;48.248;-1.700;2022-10-01T07:15:07;18.00;66.90
46926;DHT22;32667;48.248;-1.700;2022-10-01T07:17:33;18.00;66.90
46926;DHT22;32667;48.248;-1.700;2022-10-01T07:19:59;18.00;67.50
46926;DHT22;32667;48.248;-1.700;2022-10-01T07:22:26;18.00;67.00
46926;DHT22;32667;48.248;-1.700;2022-10-01T07:24:52;18.00;67.00
46926;DHT22;32667;48.248;-1.700;2022-10-01T07:27:18;18.00;67.00
46926;DHT22;32667;48.248;-1.700;2022-10-01T07:29:44;18.00;66.90
46926;DHT22;32667;48.248;-1.700;2022-10-01T07:32:10;18.00;66.90
46926;DHT22;32667;48.248;-1.700;2022-10-01T07:34:38;18.00;66.90
46926;DHT22;32667;48.248;-1.700;2022-10-01T07:37:06;18.00;66.80
46926;DHT22;32667;48.248;-1.700;2022-10-01T07:39:32;18.10;66.80
46926;DHT22;32667;48.248;-1.700;2022-10-01T07:41:57;18.10;66.70
46926;DHT22;32667;48.248;-1.700;2022-10-01T07:44:24;18.10;66.70
46926;DHT22;32667;48.248;-1.700;2022-10-01T07:46:52;18.10;66.70
46926;DHT22;32667;48.248;-1.700;2022-10-01T07:49:18;18.10;66.70
46926;DHT22;32667;48.248;-1.700;2022-10-01T07:51:45;18.20;66.70
46926;DHT22;32667;48.248;-1.700;2022-10-01T07:54:13;18.20;66.70
46926;DHT22;32667;48.248;-1.700;2022-10-01T07:56:39;18.20;66.60
46926;DHT22;32667;48.248;-1.700;2022-10-01T07:59:06;18.20;66.60
46926;DHT22;32667;48.248;-1.700;2022-10-01T08:01:34;18.20;66.50
46926;DHT22;32667;48.248;-1.700;2022-10-01T08:04:00;18.30;66.50
46926;DHT22;32667;48.248;-1.700;2022-10-01T08:06:46;18.30;67.10
46926;DHT22;32667;48.248;-1.700;2022-10-01T08:09:14;18.30;66.40
46926;DHT22;32667;48.248;-1.700;2022-10-01T08:11:39;18.40;66.40
46926;DHT22;32667;48.248;-1.700;2022-10-01T08:14:05;18.40;66.40
46926;DHT22;32667;48.248;-1.700;2022-10-01T08:16:31;18.40;66.40
46926;DHT22;32667;48.248;-1.700;2022-10-01T08:18:59;18.40;66.30
46926;DHT22;32667;48.248;-1.700;2022-10-01T08:21:27;18.50;66.40
46926;DHT22;32667;48.248;-1.700;2022-10-01T08:23:53;18.50;66.30
46926;DHT22;32667;48.248;-1.700;2022-10-01T08:26:18;18.50;66.30
46926;DHT22;32667;48.248;-1.700;2022-10-01T08:28:44;18.50;66.30
46926;DHT22;32667;48.248;-1.700;2022-10-01T08:31:10;18.60;66.40
46926;DHT22;32667;48.248;-1.700;2022-10-01T08:33:36;18.60;66.30
46926;DHT22;32667;48.248;-1.700;2022-10-01T08:36:04;18.60;66.20
46926;DHT22;32667;48.248;-1.700;2022-10-01T08:38:33;18.60;66.20
46926;DHT22;32667;48.248;-1.700;2022-10-01T08:41:26;18.60;66.20
46926;DHT22;32667;48.248;-1.700;2022-10-01T08:43:52;18.70;66.40
46926;DHT22;32667;48.248;-1.700;2022-10-01T08:46:21;18.70;66.30
46926;DHT22;32667;48.248;-1.700;2022-10-01T08:49:00;18.80;66.30
46926;DHT22;32667;48.248;-1.700;2022-10-01T08:51:43;18.80;66.20
46926;DHT22;32667;48.248;-1.700;2022-10-01T08:54:41;18.80;66.20
46926;DHT22;32667;48.248;-1.700;2022-10-01T08:57:14;18.90;66.20
46926;DHT22;32667;48.248;-1.700;2022-10-01T08:59:44;18.80;66.10
46926;DHT22;32667;48.248;-1.700;2022-10-01T09:04:43;18.80;66.20
46926;DHT22;32667;48.248;-1.700;2022-10-01T09:10:16;18.90;66.30
46926;DHT22;32667;48.248;-1.700;2022-10-01T09:20:26;18.90;66.20
46926;DHT22;32667;48.248;-1.700;2022-10-01T09:23:06;18.90;66.20
46926;DHT22;32667;48.248;-1.700;2022-10-01T09:25:37;19.00;66.20
46926;DHT22;32667;48.248;-1.700;2022-10-01T09:28:13;19.00;66.10
46926;DHT22;32667;48.248;-1.700;2022-10-01T09:31:07;19.10;66.00
46926;DHT22;32667;48.248;-1.700;2022-10-01T09:33:45;19.10;65.90
46926;DHT22;32667;48.248;-1.700;2022-10-01T09:36:36;19.20;65.80
46926;DHT22;32667;48.248;-1.700;2022-10-01T09:39:26;19.30;65.80
46926;DHT22;32667;48.248;-1.700;2022-10-01T09:41:53;19.30;65.80
46926;DHT22;32667;48.248;-1.700;2022-10-01T09:44:28;19.30;65.70
46926;DHT22;32667;48.248;-1.700;2022-10-01T09:46:54;19.40;65.60
46926;DHT22;32667;48.248;-1.700;2022-10-01T09:52:16;19.60;65.50
46926;DHT22;32667;48.248;-1.700;2022-10-01T09:55:05;19.60;65.40
46926;DHT22;32667;48.248;-1.700;2022-10-01T09:57:43;19.70;65.30
46926;DHT22;32667;48.248;-1.700;2022-10-01T10:00:14;19.80;65.20
46926;DHT22;32667;48.248;-1.700;2022-10-01T10:02:46;19.80;65.20
46926;DHT22;32667;48.248;-1.700;2022-10-01T10:05:29;19.80;65.20
46926;DHT22;32667;48.248;-1.700;2022-10-01T10:08:19;19.70;65.40
46926;DHT22;32667;48.248;-1.700;2022-10-01T10:11:03;19.70;65.50
46926;DHT22;32667;48.248;-1.700;2022-10-01T10:13:47;19.60;65.60
46926;DHT22;32667;48.248;-1.700;2022-10-01T10:18:40;19.60;65.70
46926;DHT22;32667;48.248;-1.700;2022-10-01T10:21:14;19.60;65.70
46926;DHT22;32667;48.248;-1.700;2022-10-01T10:24:00;19.70;65.70
46926;DHT22;32667;48.248;-1.700;2022-10-01T10:26:34;19.80;65.60
46926;DHT22;32667;48.248;-1.700;2022-10-01T10:29:01;19.80;65.50
46926;DHT22;32667;48.248;-1.700;2022-10-01T10:31:40;19.90;65.50
46926;DHT22;32667;48.248;-1.700;2022-10-01T10:34:23;19.90;65.40
46926;DHT22;32667;48.248;-1.700;2022-10-01T10:36:59;20.00;65.30
46926;DHT22;32667;48.248;-1.700;2022-10-01T10:39:27;20.10;65.10
46926;DHT22;32667;48.248;-1.700;2022-10-01T10:41:57;20.20;65.00
46926;DHT22;32667;48.248;-1.700;2022-10-01T10:44:28;20.30;64.80
46926;DHT22;32667;48.248;-1.700;2022-10-01T10:47:00;20.30;64.70
46926;DHT22;32667;48.248;-1.700;2022-10-01T10:49:29;20.40;64.70
46926;DHT22;32667;48.248;-1.700;2022-10-01T10:51:58;20.40;64.60
46926;DHT22;32667;48.248;-1.700;2022-10-01T10:54:32;20.50;64.70
46926;DHT22;32667;48.248;-1.700;2022-10-01T11:00:14;20.40;64.80
46926;DHT22;32667;48.248;-1.700;2022-10-01T11:03:04;20.40;64.90
46926;DHT22;32667;48.248;-1.700;2022-10-01T11:05:39;20.40;65.00
46926;DHT22;32667;48.248;-1.700;2022-10-01T11:08:10;20.40;65.00
46926;DHT22;32667;48.248;-1.700;2022-10-01T11:23:46;20.30;65.10
46926;DHT22;32667;48.248;-1.700;2022-10-01T11:29:54;20.50;64.90
46926;DHT22;32667;48.248;-1.700;2022-10-01T11:37:59;20.70;64.60
46926;DHT22;32667;48.248;-1.700;2022-10-01T11:43:36;20.80;64.60
46926;DHT22;32667;48.248;-1.700;2022-10-01T11:46:09;20.80;64.60
46926;DHT22;32667;48.248;-1.700;2022-10-01T11:48:49;20.80;64.60
46926;DHT22;32667;48.248;-1.700;2022-10-01T11:51:20;20.90;64.40
46926;DHT22;32667;48.248;-1.700;2022-10-01T11:53:50;21.00;64.30
46926;DHT22;32667;48.248;-1.700;2022-10-01T12:04:51;21.40;63.80
46926;DHT22;32667;48.248;-1.700;2022-10-01T12:07:45;21.60;63.70
46926;DHT22;32667;48.248;-1.700;2022-10-01T12:13:20;21.70;63.50
46926;DHT22;32667;48.248;-1.700;2022-10-01T12:16:05;21.80;63.50
46926;DHT22;32667;48.248;-1.700;2022-10-01T12:18:50;21.90;63.40
46926;DHT22;32667;48.248;-1.700;2022-10-01T12:21:26;21.90;63.40
46926;DHT22;32667;48.248;-1.700;2022-10-01T12:23:59;22.00;63.30
46926;DHT22;32667;48.248;-1.700;2022-10-01T12:29:44;22.00;63.50
46926;DHT22;32667;48.248;-1.700;2022-10-01T12:40:55;21.90;63.90
46926;DHT22;32667;48.248;-1.700;2022-10-01T12:48:56;22.30;63.40
46926;DHT22;32667;48.248;-1.700;2022-10-01T12:54:12;22.60;62.90
46926;DHT22;32667;48.248;-1.700;2022-10-01T13:05:55;23.30;62.10
46926;DHT22;32667;48.248;-1.700;2022-10-01T13:13:54;23.50;62.00
46926;DHT22;32667;48.248;-1.700;2022-10-01T13:16:43;23.60;62.20
46926;DHT22;32667;48.248;-1.700;2022-10-01T13:24:48;24.00;61.80
46926;DHT22;32667;48.248;-1.700;2022-10-01T13:27:26;24.00;61.80
46926;DHT22;32667;48.248;-1.700;2022-10-01T13:32:55;23.80;62.30
46926;DHT22;32667;48.248;-1.700;2022-10-01T13:35:33;23.90;62.40
46926;DHT22;32667;48.248;-1.700;2022-10-01T13:38:01;24.00;62.30
46926;DHT22;32667;48.248;-1.700;2022-10-01T13:40:37;24.20;62.10
46926;DHT22;32667;48.248;-1.700;2022-10-01T13:43:16;24.40;61.80
46926;DHT22;32667;48.248;-1.700;2022-10-01T13:49:06;24.70;61.50
46926;DHT22;32667;48.248;-1.700;2022-10-01T13:51:39;24.90;61.30
46926;DHT22;32667;48.248;-1.700;2022-10-01T13:54:10;25.00;61.10
46926;DHT22;32667;48.248;-1.700;2022-10-01T13:56:40;24.90;61.20
46926;DHT22;32667;48.248;-1.700;2022-10-01T13:59:31;24.90;61.50
46926;DHT22;32667;48.248;-1.700;2022-10-01T14:01:57;25.00;61.50
46926;DHT22;32667;48.248;-1.700;2022-10-01T14:04:39;25.00;61.50
46926;DHT22;32667;48.248;-1.700;2022-10-01T14:07:37;25.00;61.50
46926;DHT22;32667;48.248;-1.700;2022-10-01T14:10:04;25.00;61.50
46926;DHT22;32667;48.248;-1.700;2022-10-01T14:12:35;25.00;61.60
46926;DHT22;32667;48.248;-1.700;2022-10-01T14:15:25;24.90;61.80
46926;DHT22;32667;48.248;-1.700;2022-10-01T14:18:19;24.90;61.80
46926;DHT22;32667;48.248;-1.700;2022-10-01T14:23:46;24.90;61.90
46926;DHT22;32667;48.248;-1.700;2022-10-01T14:27:10;25.00;61.80
46926;DHT22;32667;48.248;-1.700;2022-10-01T14:37:28;25.00;61.70
46926;DHT22;32667;48.248;-1.700;2022-10-01T14:40:16;25.00;61.80
46926;DHT22;32667;48.248;-1.700;2022-10-01T14:42:54;24.90;62.00
46926;DHT22;32667;48.248;-1.700;2022-10-01T14:45:20;24.80;62.10
46926;DHT22;32667;48.248;-1.700;2022-10-01T14:47:45;24.80;62.10
46926;DHT22;32667;48.248;-1.700;2022-10-01T14:50:18;24.90;62.10
46926;DHT22;32667;48.248;-1.700;2022-10-01T14:52:47;24.80;62.10
46926;DHT22;32667;48.248;-1.700;2022-10-01T14:55:18;24.80;62.10
46926;DHT22;32667;48.248;-1.700;2022-10-01T14:57:49;24.70;62.30
46926;DHT22;32667;48.248;-1.700;2022-10-01T15:00:24;24.80;62.40
46926;DHT22;32667;48.248;-1.700;2022-10-01T15:02:52;24.80;62.30
46926;DHT22;32667;48.248;-1.700;2022-10-01T15:05:34;24.80;62.20
46926;DHT22;32667;48.248;-1.700;2022-10-01T15:08:19;24.80;62.20
46926;DHT22;32667;48.248;-1.700;2022-10-01T15:10:55;24.80;62.40
46926;DHT22;32667;48.248;-1.700;2022-10-01T15:13:53;24.70;62.30
46926;DHT22;32667;48.248;-1.700;2022-10-01T15:16:21;24.80;62.40
46926;DHT22;32667;48.248;-1.700;2022-10-01T15:18:52;24.70;62.30
46926;DHT22;32667;48.248;-1.700;2022-10-01T15:21:26;24.70;62.30
46926;DHT22;32667;48.248;-1.700;2022-10-01T15:23:53;24.70;62.30
46926;DHT22;32667;48.248;-1.700;2022-10-01T15:26:23;24.80;62.30
46926;DHT22;32667;48.248;-1.700;2022-10-01T15:29:05;24.80;62.20
46926;DHT22;32667;48.248;-1.700;2022-10-01T15:31:32;24.90;62.20
46926;DHT22;32667;48.248;-1.700;2022-10-01T15:34:03;25.00;62.10
46926;DHT22;32667;48.248;-1.700;2022-10-01T15:36:30;25.00;62.10
46926;DHT22;32667;48.248;-1.700;2022-10-01T15:38:57;24.90;62.10
46926;DHT22;32667;48.248;-1.700;2022-10-01T15:41:29;24.80;62.30
46926;DHT22;32667;48.248;-1.700;2022-10-01T15:44:03;24.70;62.50
46926;DHT22;32667;48.248;-1.700;2022-10-01T15:46:31;24.70;62.50
46926;DHT22;32667;48.248;-1.700;2022-10-01T15:49:11;24.60;62.50
46926;DHT22;32667;48.248;-1.700;2022-10-01T15:51:54;24.50;62.70
46926;DHT22;32667;48.248;-1.700;2022-10-01T15:54:41;24.40;63.00
46926;DHT22;32667;48.248;-1.700;2022-10-01T15:57:09;24.30;63.20
46926;DHT22;32667;48.248;-1.700;2022-10-01T15:59:39;24.20;63.30
46926;DHT22;32667;48.248;-1.700;2022-10-01T16:02:17;24.20;63.30
46926;DHT22;32667;48.248;-1.700;2022-10-01T16:04:44;24.20;63.20
46926;DHT22;32667;48.248;-1.700;2022-10-01T16:07:19;24.30;63.00
46926;DHT22;32667;48.248;-1.700;2022-10-01T16:09:56;24.30;62.90
46926;DHT22;32667;48.248;-1.700;2022-10-01T16:12:25;24.20;62.90
46926;DHT22;32667;48.248;-1.700;2022-10-01T16:17:59;24.20;63.00
46926;DHT22;32667;48.248;-1.700;2022-10-01T16:20:40;24.10;63.20
46926;DHT22;32667;48.248;-1.700;2022-10-01T16:29:04;23.70;63.70
46926;DHT22;32667;48.248;-1.700;2022-10-01T16:31:31;23.60;63.80
46926;DHT22;32667;48.248;-1.700;2022-10-01T16:33:59;23.50;63.90
46926;DHT22;32667;48.248;-1.700;2022-10-01T16:36:25;23.50;63.90
46926;DHT22;32667;48.248;-1.700;2022-10-01T16:38:52;23.50;63.90
46926;DHT22;32667;48.248;-1.700;2022-10-01T16:41:24;23.50;64.00
46926;DHT22;32667;48.248;-1.700;2022-10-01T16:43:52;23.40;63.90
46926;DHT22;32667;48.248;-1.700;2022-10-01T16:46:18;23.40;63.90
46926;DHT22;32667;48.248;-1.700;2022-10-01T16:48:46;23.30;64.00
46926;DHT22;32667;48.248;-1.700;2022-10-01T16:51:15;23.20;64.10
46926;DHT22;32667;48.248;-1.700;2022-10-01T16:53:44;23.00;64.20
46926;DHT22;32667;48.248;-1.700;2022-10-01T16:56:10;23.00;64.40
46926;DHT22;32667;48.248;-1.700;2022-10-01T16:58:37;22.90;64.50
46926;DHT22;32667;48.248;-1.700;2022-10-01T17:01:07;22.80;64.60
46926;DHT22;32667;48.248;-1.700;2022-10-01T17:03:34;22.70;64.70
46926;DHT22;32667;48.248;-1.700;2022-10-01T17:06:01;22.60;64.80
46926;DHT22;32667;48.248;-1.700;2022-10-01T17:08:27;22.50;64.90
46926;DHT22;32667;48.248;-1.700;2022-10-01T17:10:55;22.40;64.90
46926;DHT22;32667;48.248;-1.700;2022-10-01T17:13:27;22.40;65.10
46926;DHT22;32667;48.248;-1.700;2022-10-01T17:15:53;22.20;65.00
46926;DHT22;32667;48.248;-1.700;2022-10-01T17:18:19;22.20;65.20
46926;DHT22;32667;48.248;-1.700;2022-10-01T17:20:45;22.10;65.30
46926;DHT22;32667;48.248;-1.700;2022-10-01T17:23:14;22.00;65.30
46926;DHT22;32667;48.248;-1.700;2022-10-01T17:25:40;22.00;65.30
46926;DHT22;32667;48.248;-1.700;2022-10-01T17:28:10;21.90;65.30
46926;DHT22;32667;48.248;-1.700;2022-10-01T17:30:41;21.80;65.40
46926;DHT22;32667;48.248;-1.700;2022-10-01T17:33:08;21.70;65.50
46926;DHT22;32667;48.248;-1.700;2022-10-01T17:35:42;21.70;65.60
46926;DHT22;32667;48.248;-1.700;2022-10-01T17:38:09;21.60;65.60
46926;DHT22;32667;48.248;-1.700;2022-10-01T17:40:38;21.50;65.60
46926;DHT22;32667;48.248;-1.700;2022-10-01T17:43:10;21.50;65.70
46926;DHT22;32667;48.248;-1.700;2022-10-01T17:45:35;21.40;65.70
46926;DHT22;32667;48.248;-1.700;2022-10-01T17:48:01;21.40;65.70
46926;DHT22;32667;48.248;-1.700;2022-10-01T17:50:27;21.30;65.80
46926;DHT22;32667;48.248;-1.700;2022-10-01T17:52:53;21.20;65.90
46926;DHT22;32667;48.248;-1.700;2022-10-01T17:55:19;21.20;66.00
46926;DHT22;32667;48.248;-1.700;2022-10-01T17:57:46;21.10;66.00
46926;DHT22;32667;48.248;-1.700;2022-10-01T18:00:12;21.10;66.10
46926;DHT22;32667;48.248;-1.700;2022-10-01T18:02:37;21.00;66.00
46926;DHT22;32667;48.248;-1.700;2022-10-01T18:05:11;20.90;66.00
46926;DHT22;32667;48.248;-1.700;2022-10-01T18:07:39;20.90;66.10
46926;DHT22;32667;48.248;-1.700;2022-10-01T18:10:06;20.80;66.10
46926;DHT22;32667;48.248;-1.700;2022-10-01T18:12:33;20.80;66.10